createdAt,value
2018-10-07T00:01:59.892Z,60.58
2018-10-07T00:04:27.427Z,61.01
2018-10-07T00:06:54.956Z,61.08
2018-10-07T00:09:22.896Z,60.78
2018-10-07T00:11:50.491Z,60.64
2018-10-07T00:14:18.050Z,60.70
2018-10-07T00:16:45.595Z,60.67
2018-10-07T00:19:13.120Z,60.24
2018-10-07T00:21:41.107Z,61.03
2018-10-07T00:24:08.639Z,60.96
2018-10-07T00:26:36.534Z,60.43
2018-10-07T00:29:04.145Z,60.72
2018-10-07T00:31:36.168Z,60.86
2018-10-07T00:34:04.104Z,61.71
2018-10-07T00:36:31.619Z,62.08
2018-10-07T00:38:59.156Z,63.04
2018-10-07T00:41:26.718Z,62.43
2018-10-07T00:43:54.246Z,62.99
2018-10-07T00:46:21.823Z,63.40
2018-10-07T00:48:49.355Z,64.24
2018-10-07T00:51:16.894Z,64.51
2018-10-07T00:53:44.467Z,64.52
2018-10-07T00:56:12.001Z,64.75
2018-10-07T00:58:39.578Z,65.33
2018-10-07T01:01:07.149Z,65.53
2018-10-07T01:03:34.693Z,64.98
2018-10-07T01:06:02.251Z,64.71
2018-10-07T01:08:29.824Z,64.40
2018-10-07T01:10:57.385Z,63.94
2018-10-07T01:13:24.954Z,64.13
2018-10-07T01:15:52.515Z,64.95
2018-10-07T01:18:20.082Z,65.34
2018-10-07T01:20:47.671Z,64.22
2018-10-07T01:23:15.234Z,65.10
2018-10-07T01:25:42.868Z,65.69
2018-10-07T01:28:10.397Z,66.09
2018-10-07T01:30:38.206Z,65.46
2018-10-07T01:33:05.723Z,66.03
2018-10-07T01:35:33.240Z,66.39
2018-10-07T01:38:00.781Z,67.15
2018-10-07T01:40:28.299Z,67.11
2018-10-07T01:42:55.978Z,67.06
2018-10-07T01:45:23.498Z,66.48
2018-10-07T01:47:51.019Z,67.22
2018-10-07T01:50:18.538Z,67.37
2018-10-07T01:52:46.074Z,66.60
2018-10-07T01:55:13.600Z,66.75
2018-10-07T01:57:41.135Z,66.23
2018-10-07T02:00:08.998Z,66.43
2018-10-07T02:02:36.507Z,66.21
2018-10-07T02:05:04.116Z,67.15
2018-10-07T02:07:31.666Z,67.63
2018-10-07T02:09:59.186Z,68.43
2018-10-07T02:12:26.937Z,68.09
2018-10-07T02:14:54.451Z,68.39
2018-10-07T02:17:22.314Z,68.50
2018-10-07T02:19:49.850Z,68.41
2018-10-07T02:22:17.381Z,68.59
2018-10-07T02:24:44.925Z,68.59
2018-10-07T02:27:12.463Z,68.15
2018-10-07T02:29:40.000Z,68.72
2018-10-07T02:32:07.558Z,68.30
2018-10-07T02:34:35.078Z,68.63
2018-10-07T02:37:02.682Z,68.47
2018-10-07T02:39:30.205Z,69.10
2018-10-07T02:41:58.111Z,69.83
2018-10-07T02:44:25.669Z,69.69
2018-10-07T02:46:53.199Z,69.26
2018-10-07T02:49:20.739Z,69.41
2018-10-07T02:51:48.342Z,69.50
2018-10-07T02:54:16.227Z,69.80
2018-10-07T02:56:43.798Z,69.87
2018-10-07T02:59:11.450Z,70.07
2018-10-07T03:01:39.005Z,69.72
2018-10-07T03:04:06.593Z,69.38
2018-10-07T03:06:34.141Z,69.60
2018-10-07T03:09:01.674Z,69.68
2018-10-07T03:11:29.215Z,70.38
2018-10-07T03:13:56.839Z,70.68
2018-10-07T03:16:24.375Z,70.51
2018-10-07T03:18:51.918Z,70.15
2018-10-07T03:21:19.448Z,70.47
2018-10-07T03:23:47.007Z,70.45
2018-10-07T03:26:14.529Z,70.45
2018-10-07T03:28:42.124Z,70.00
2018-10-07T03:31:09.635Z,70.36
2018-10-07T03:33:37.155Z,70.46
2018-10-07T03:36:04.719Z,70.74
2018-10-07T03:38:32.289Z,70.64
2018-10-07T03:40:59.878Z,70.49
2018-10-07T03:43:27.417Z,70.50
2018-10-07T03:45:54.975Z,70.70
2018-10-07T03:48:22.530Z,71.12
2018-10-07T03:50:50.159Z,70.94
2018-10-07T03:53:17.674Z,70.12
2018-10-07T03:55:45.222Z,70.10
2018-10-07T03:58:12.731Z,70.94
2018-10-07T04:00:40.327Z,71.29
2018-10-07T04:03:07.887Z,71.39
2018-10-07T04:05:35.412Z,71.54
2018-10-07T04:08:03.294Z,71.44
2018-10-07T04:10:30.825Z,70.52
2018-10-07T04:12:58.339Z,70.12
2018-10-07T04:15:25.870Z,69.92
2018-10-07T04:17:53.391Z,69.88
2018-10-07T04:20:20.924Z,70.65
2018-10-07T04:22:48.442Z,71.44
2018-10-07T04:25:15.992Z,71.04
2018-10-07T04:27:43.551Z,71.38
2018-10-07T04:30:11.065Z,71.98
2018-10-07T04:32:38.593Z,72.30
2018-10-07T04:35:06.198Z,71.95
2018-10-07T04:37:33.715Z,71.57
2018-10-07T04:40:01.545Z,71.52
2018-10-07T04:42:29.061Z,70.92
2018-10-07T04:44:56.578Z,70.85
2018-10-07T04:47:24.135Z,70.42
2018-10-07T04:49:51.650Z,69.98
2018-10-07T04:52:19.183Z,69.95
2018-10-07T04:54:46.742Z,70.78
2018-10-07T04:57:14.288Z,71.05
2018-10-07T04:59:41.822Z,71.62
2018-10-07T05:02:09.404Z,71.52
2018-10-07T05:04:36.993Z,71.92
2018-10-07T05:07:04.544Z,71.87
2018-10-07T05:09:32.125Z,71.06
2018-10-07T05:12:00.838Z,70.91
2018-10-07T05:14:28.402Z,70.68
2018-10-07T05:16:55.990Z,70.91
2018-10-07T05:19:23.950Z,72.04
2018-10-07T05:21:51.502Z,71.49
2018-10-07T05:24:19.096Z,71.47
2018-10-07T05:26:46.631Z,72.02
2018-10-07T05:29:14.150Z,71.56
2018-10-07T05:31:42.057Z,72.00
2018-10-07T05:34:09.670Z,72.80
2018-10-07T05:36:37.210Z,73.03
2018-10-07T05:39:07.161Z,73.23
2018-10-07T05:41:34.738Z,73.17
2018-10-07T05:44:02.250Z,73.10
2018-10-07T05:46:29.965Z,73.16
2018-10-07T05:48:57.498Z,73.51
2018-10-07T05:51:25.031Z,73.64
2018-10-07T05:53:52.610Z,73.58
2018-10-07T05:56:20.146Z,73.09
2018-10-07T05:58:47.954Z,73.31
2018-10-07T06:01:17.863Z,73.46
2018-10-07T06:03:51.073Z,73.40
2018-10-07T06:06:18.675Z,73.55
2018-10-07T06:08:46.259Z,73.30
2018-10-07T06:11:13.814Z,73.53
2018-10-07T06:13:41.375Z,72.55
2018-10-07T06:16:08.922Z,72.02
2018-10-07T06:18:36.477Z,69.76
2018-10-07T06:21:04.202Z,68.86
2018-10-07T06:23:31.802Z,67.56
2018-10-07T06:25:59.363Z,65.94
2018-10-07T06:28:26.926Z,63.85
2018-10-07T06:30:54.451Z,63.25
2018-10-07T06:33:22.015Z,62.62
2018-10-07T06:35:49.607Z,61.43
2018-10-07T06:38:17.152Z,61.17
2018-10-07T06:40:45.060Z,60.50
2018-10-07T06:43:12.600Z,59.09
2018-10-07T06:45:40.156Z,57.83
2018-10-07T06:48:07.754Z,56.91
2018-10-07T06:50:35.356Z,55.69
2018-10-07T06:53:02.963Z,56.86
2018-10-07T06:55:30.503Z,57.53
2018-10-07T06:57:58.042Z,57.32
2018-10-07T07:00:25.599Z,58.25
2018-10-07T07:02:53.147Z,58.80
2018-10-07T07:05:20.714Z,58.39
2018-10-07T07:07:48.227Z,58.50
2018-10-07T07:10:15.907Z,57.90
2018-10-07T07:12:43.470Z,56.87
2018-10-07T07:15:11.052Z,57.30
2018-10-07T07:17:38.602Z,56.98
2018-10-07T07:20:06.442Z,55.99
2018-10-07T07:22:34.010Z,55.49
2018-10-07T07:25:01.546Z,52.76
2018-10-07T07:27:29.124Z,50.31
2018-10-07T07:29:56.674Z,47.55
2018-10-07T07:32:24.225Z,45.10
2018-10-07T07:34:52.080Z,43.58
2018-10-07T07:37:19.625Z,41.15
2018-10-07T07:39:47.244Z,39.85
2018-10-07T07:42:14.897Z,38.63
2018-10-07T07:44:42.383Z,37.00
2018-10-07T07:47:09.999Z,36.01
2018-10-07T07:49:37.570Z,33.93
2018-10-07T07:52:05.136Z,34.63
2018-10-07T07:54:32.722Z,34.47
2018-10-07T07:57:00.267Z,34.64
2018-10-07T07:59:27.859Z,34.09
2018-10-07T08:01:55.403Z,33.70
2018-10-07T08:04:22.942Z,33.57
2018-10-07T08:06:50.501Z,30.63
2018-10-07T08:09:18.067Z,29.12
2018-10-07T08:11:45.599Z,28.65
2018-10-07T08:14:13.194Z,27.86
2018-10-07T08:16:40.763Z,27.77
2018-10-07T08:19:08.386Z,24.37
2018-10-07T08:21:35.963Z,23.57
2018-10-07T08:24:03.574Z,23.17
2018-10-07T08:26:31.122Z,24.63
2018-10-07T08:28:58.695Z,23.67
2018-10-07T08:31:26.281Z,21.79
2018-10-07T08:33:53.835Z,20.72
2018-10-07T08:36:21.418Z,20.34
2018-10-07T08:38:48.984Z,20.58
2018-10-07T08:41:16.546Z,20.86
2018-10-07T08:43:44.082Z,19.86
2018-10-07T08:46:11.699Z,18.67
2018-10-07T08:48:39.570Z,18.31
2018-10-07T08:51:07.167Z,18.32
2018-10-07T08:53:34.723Z,19.01
2018-10-07T08:56:02.437Z,20.18
2018-10-07T08:58:29.929Z,19.52
2018-10-07T09:00:57.842Z,20.51
2018-10-07T09:03:25.438Z,20.79
2018-10-07T09:05:53.004Z,20.20
2018-10-07T09:08:20.584Z,20.52
2018-10-07T09:10:48.146Z,20.29
2018-10-07T09:13:15.703Z,20.07
2018-10-07T09:15:43.258Z,19.15
2018-10-07T09:18:10.838Z,19.78
2018-10-07T09:20:38.398Z,19.08
2018-10-07T09:23:06.050Z,18.40
2018-10-07T09:25:33.688Z,17.25
2018-10-07T09:28:01.303Z,16.67
2018-10-07T09:30:29.324Z,17.64
2018-10-07T09:32:57.301Z,17.04
2018-10-07T09:35:24.761Z,15.74
2018-10-07T09:37:52.352Z,15.82
2018-10-07T09:40:19.907Z,17.03
2018-10-07T09:42:47.473Z,17.79
2018-10-07T09:45:15.061Z,18.88
2018-10-07T09:47:42.685Z,20.42
2018-10-07T09:50:10.265Z,20.70
2018-10-07T09:52:37.830Z,20.77
2018-10-07T09:55:05.415Z,18.86
2018-10-07T09:57:33.026Z,19.11
2018-10-07T10:00:00.579Z,19.30
2018-10-07T10:02:28.154Z,20.85
2018-10-07T10:04:55.739Z,18.89
2018-10-07T10:07:23.393Z,19.59
2018-10-07T10:09:50.954Z,19.54
2018-10-07T10:12:18.522Z,19.75
2018-10-07T10:14:46.085Z,20.59
2018-10-07T10:17:15.218Z,20.05
2018-10-07T10:19:52.772Z,21.28
2018-10-07T10:22:23.895Z,21.36
2018-10-07T10:24:57.167Z,21.17
2018-10-07T10:27:33.679Z,22.22
2018-10-07T10:30:02.103Z,21.82
2018-10-07T10:32:31.810Z,22.83
2018-10-07T10:35:10.098Z,23.24
2018-10-07T10:37:40.784Z,23.44
2018-10-07T10:40:44.330Z,24.50
2018-10-07T10:43:14.188Z,24.11
2018-10-07T10:46:49.658Z,26.27
2018-10-07T10:49:31.428Z,27.70
2018-10-07T10:52:31.167Z,28.75
2018-10-07T10:55:03.357Z,30.34
2018-10-07T10:57:32.994Z,32.43
2018-10-07T11:00:16.827Z,32.88
2018-10-07T11:02:49.980Z,33.68
2018-10-07T11:05:26.820Z,35.81
2018-10-07T11:08:00.592Z,35.47
2018-10-07T11:10:31.404Z,36.54
2018-10-07T11:13:10.494Z,37.52
2018-10-07T11:15:42.715Z,39.16
2018-10-07T11:18:11.131Z,39.05
2018-10-07T11:20:43.350Z,40.45
2018-10-07T11:23:32.222Z,41.36
2018-10-07T11:26:03.877Z,42.27
2018-10-07T11:28:37.818Z,42.07
2018-10-07T11:31:11.063Z,41.52
2018-10-07T11:34:11.973Z,41.75
2018-10-07T11:36:54.944Z,41.88
2018-10-07T11:39:28.030Z,42.69
2018-10-07T11:43:01.282Z,42.40
2018-10-07T11:45:30.487Z,43.07
2018-10-07T11:48:04.222Z,42.88
2018-10-07T11:50:36.519Z,42.60
2018-10-07T11:53:07.503Z,42.54
2018-10-07T11:55:35.126Z,42.64
2018-10-07T11:58:02.773Z,41.64
2018-10-07T12:00:30.319Z,42.30
2018-10-07T12:02:57.857Z,43.13
2018-10-07T12:05:25.429Z,42.02
2018-10-07T12:07:53.083Z,42.58
2018-10-07T12:10:20.962Z,43.69
2018-10-07T12:12:48.463Z,43.09
2018-10-07T12:15:16.043Z,42.86
2018-10-07T12:17:43.935Z,43.35
2018-10-07T12:20:11.500Z,43.31
2018-10-07T12:22:39.062Z,43.52
2018-10-07T12:25:06.705Z,43.73
2018-10-07T12:27:34.264Z,44.69
2018-10-07T12:30:01.836Z,44.82
2018-10-07T12:32:29.446Z,45.80
2018-10-07T12:34:57.021Z,45.07
2018-10-07T12:37:24.861Z,44.65
2018-10-07T12:39:52.396Z,44.79
2018-10-07T12:42:19.974Z,45.46
2018-10-07T12:44:47.639Z,45.68
2018-10-07T12:47:15.202Z,46.38
2018-10-07T12:49:42.744Z,46.04
2018-10-07T12:52:10.647Z,45.70
2018-10-07T12:54:38.290Z,46.98
2018-10-07T12:57:05.829Z,46.61
2018-10-07T12:59:33.407Z,46.72
2018-10-07T13:02:00.992Z,46.49
2018-10-07T13:04:28.907Z,47.38
2018-10-07T13:06:56.513Z,47.38
2018-10-07T13:09:24.067Z,46.80
2018-10-07T13:11:51.659Z,46.24
2018-10-07T13:14:19.231Z,46.61
2018-10-07T13:16:46.812Z,47.76
2018-10-07T13:19:14.417Z,47.49
2018-10-07T13:21:41.918Z,47.21
2018-10-07T13:24:09.518Z,47.10
2018-10-07T13:26:37.114Z,47.13
2018-10-07T13:29:04.669Z,47.15
2018-10-07T13:31:32.239Z,46.85
2018-10-07T13:33:59.797Z,45.75
2018-10-07T13:36:27.347Z,45.83
2018-10-07T13:38:54.948Z,46.04
2018-10-07T13:41:22.518Z,46.19
2018-10-07T13:43:50.097Z,46.10
2018-10-07T13:46:17.666Z,45.61
2018-10-07T13:48:45.242Z,46.54
2018-10-07T13:51:12.823Z,46.17
2018-10-07T13:53:40.456Z,46.77
2018-10-07T13:56:08.093Z,45.97
2018-10-07T13:58:35.732Z,46.12
2018-10-07T14:01:03.269Z,45.42
2018-10-07T14:03:30.911Z,45.48
2018-10-07T14:05:58.419Z,46.02
2018-10-07T14:08:26.006Z,46.09
2018-10-07T14:10:53.548Z,46.61
2018-10-07T14:13:21.378Z,46.90
2018-10-07T14:15:48.939Z,46.57
2018-10-07T14:18:16.509Z,47.12
2018-10-07T14:20:44.391Z,48.03
2018-10-07T14:23:11.948Z,47.84
2018-10-07T14:25:39.505Z,48.85
2018-10-07T14:28:07.193Z,49.01
2018-10-07T14:30:36.300Z,49.01
2018-10-07T14:33:05.031Z,49.40
2018-10-07T14:35:32.623Z,49.55
2018-10-07T14:38:00.218Z,48.96
2018-10-07T14:40:27.782Z,48.75
2018-10-07T14:42:55.375Z,48.68
2018-10-07T14:45:22.965Z,49.49
2018-10-07T14:47:50.529Z,49.28
2018-10-07T14:50:18.123Z,49.66
2018-10-07T14:52:45.700Z,50.13
2018-10-07T14:55:13.294Z,51.12
2018-10-07T14:57:40.867Z,51.50
2018-10-07T15:00:08.447Z,52.52
2018-10-07T15:02:36.003Z,52.39
2018-10-07T15:05:03.995Z,53.09
2018-10-07T15:07:31.879Z,53.66
2018-10-07T15:09:59.481Z,53.67
2018-10-07T15:12:27.288Z,53.15
2018-10-07T15:14:54.860Z,53.50
2018-10-07T15:17:22.431Z,53.42
2018-10-07T15:19:50.025Z,53.34
2018-10-07T15:22:17.602Z,53.61
2018-10-07T15:24:45.244Z,53.63
2018-10-07T15:27:12.797Z,52.66
2018-10-07T15:29:40.366Z,52.42
2018-10-07T15:32:07.944Z,52.75
2018-10-07T15:34:35.494Z,51.79
2018-10-07T15:37:04.777Z,51.83
2018-10-07T15:39:33.279Z,52.85
2018-10-07T15:42:01.741Z,52.54
2018-10-07T15:44:29.339Z,52.10
2018-10-07T15:46:56.889Z,52.56
2018-10-07T15:49:24.799Z,53.30
2018-10-07T15:51:52.366Z,53.80
2018-10-07T15:54:19.939Z,53.00
2018-10-07T15:56:47.633Z,53.89
2018-10-07T15:59:15.097Z,54.05
2018-10-07T16:01:42.655Z,54.27
2018-10-07T16:04:10.311Z,54.98
2018-10-07T16:06:37.868Z,54.56
2018-10-07T16:09:06.584Z,55.08
2018-10-07T16:11:34.198Z,54.98
2018-10-07T16:14:01.755Z,55.76
2018-10-07T16:16:29.374Z,56.16
2018-10-07T16:18:58.030Z,56.16
2018-10-07T16:21:25.675Z,56.30
2018-10-07T16:23:53.322Z,56.68
2018-10-07T16:26:20.943Z,56.79
2018-10-07T16:28:48.535Z,56.94
2018-10-07T16:31:16.085Z,57.14
2018-10-07T16:33:43.659Z,56.67
2018-10-07T16:36:11.580Z,56.74
2018-10-07T16:38:39.111Z,57.26
2018-10-07T16:41:06.763Z,57.01
2018-10-07T16:43:34.338Z,58.13
2018-10-07T16:46:02.034Z,57.63
2018-10-07T16:48:30.295Z,57.96
2018-10-07T16:50:57.891Z,58.38
2018-10-07T16:53:25.487Z,58.28
2018-10-07T16:55:53.050Z,58.37
2018-10-07T16:58:20.619Z,58.42
2018-10-07T17:00:48.276Z,58.64
2018-10-07T17:03:15.862Z,58.86
2018-10-07T17:05:43.441Z,58.94
2018-10-07T17:08:11.049Z,59.06
2018-10-07T17:10:38.650Z,58.43
2018-10-07T17:13:06.298Z,58.80
2018-10-07T17:15:33.820Z,58.62
2018-10-07T17:18:01.453Z,58.67
2018-10-07T17:20:29.048Z,58.86
2018-10-07T17:22:56.775Z,58.56
2018-10-07T17:25:24.355Z,58.62
2018-10-07T17:27:51.919Z,58.19
2018-10-07T17:30:19.661Z,58.19
2018-10-07T17:32:47.246Z,58.06
2018-10-07T17:35:14.852Z,58.10
2018-10-07T17:37:42.412Z,58.46
2018-10-07T17:40:10.002Z,58.79
2018-10-07T17:42:37.623Z,60.17
2018-10-07T17:45:05.175Z,61.49
2018-10-07T17:47:32.753Z,62.06
2018-10-07T17:50:00.315Z,61.90
2018-10-07T17:52:27.887Z,61.87
2018-10-07T17:54:55.691Z,61.96
2018-10-07T17:57:23.154Z,62.43
2018-10-07T17:59:50.737Z,62.00
2018-10-07T18:02:18.700Z,62.32
2018-10-07T18:04:46.238Z,62.41
2018-10-07T18:07:13.782Z,62.41
2018-10-07T18:09:41.390Z,63.03
2018-10-07T18:12:08.944Z,62.95
2018-10-07T18:14:36.501Z,63.26
2018-10-07T18:17:04.071Z,63.25
2018-10-07T18:19:31.811Z,62.77
2018-10-07T18:21:59.412Z,63.39
2018-10-07T18:24:26.958Z,63.37
2018-10-07T18:26:54.583Z,63.81
2018-10-07T18:29:22.159Z,64.79
2018-10-07T18:31:50.015Z,64.68
2018-10-07T18:34:17.702Z,64.73
2018-10-07T18:36:45.193Z,65.02
2018-10-07T18:39:12.802Z,65.02
2018-10-07T18:41:40.400Z,65.03
2018-10-07T18:44:08.653Z,65.89
2018-10-07T18:46:36.207Z,66.42
2018-10-07T18:49:04.055Z,66.90
2018-10-07T18:51:31.646Z,67.18
2018-10-07T18:53:59.248Z,67.07
2018-10-07T18:56:26.827Z,67.74
2018-10-07T18:58:54.423Z,68.16
2018-10-07T19:01:22.071Z,68.59
2018-10-07T19:03:49.683Z,68.24
2018-10-07T19:06:17.304Z,68.72
2018-10-07T19:08:45.157Z,69.63
2018-10-07T19:11:12.908Z,69.36
2018-10-07T19:13:40.501Z,69.52
2018-10-07T19:16:08.100Z,69.47
2018-10-07T19:18:35.706Z,69.50
2018-10-07T19:21:03.427Z,70.22
2018-10-07T19:23:30.911Z,70.38
2018-10-07T19:25:58.551Z,70.39
2018-10-07T19:28:26.139Z,71.11
2018-10-07T19:30:53.715Z,70.80
2018-10-07T19:33:21.359Z,70.71
2018-10-07T19:35:48.963Z,71.08
2018-10-07T19:38:16.551Z,71.39
2018-10-07T19:40:44.115Z,71.58
2018-10-07T19:43:11.677Z,71.22
2018-10-07T19:45:39.258Z,71.63
2018-10-07T19:48:06.919Z,72.61
2018-10-07T19:50:34.490Z,72.85
2018-10-07T19:53:02.351Z,73.22
2018-10-07T19:55:29.890Z,73.27
2018-10-07T19:57:57.421Z,72.91
2018-10-07T20:00:25.287Z,73.59
2018-10-07T20:02:52.835Z,73.19
2018-10-07T20:05:20.369Z,72.98
2018-10-07T20:07:47.968Z,73.72
2018-10-07T20:10:15.547Z,73.40
2018-10-07T20:12:43.143Z,73.65
2018-10-07T20:15:10.988Z,73.74
2018-10-07T20:17:38.566Z,74.72
2018-10-07T20:20:06.239Z,74.70
2018-10-07T20:22:33.821Z,74.60
2018-10-07T20:25:01.416Z,73.83
2018-10-07T20:27:29.048Z,74.44
2018-10-07T20:29:56.932Z,75.07
2018-10-07T20:32:24.451Z,74.83
2018-10-07T20:34:52.030Z,75.57
2018-10-07T20:37:19.891Z,75.44
2018-10-07T20:39:47.459Z,76.15
2018-10-07T20:42:14.983Z,76.10
2018-10-07T20:44:42.545Z,76.11
2018-10-07T20:47:10.094Z,76.53
2018-10-07T20:49:38.338Z,76.99
2018-10-07T20:52:05.931Z,76.82
2018-10-07T20:54:33.484Z,77.08
2018-10-07T20:57:01.056Z,77.13
2018-10-07T20:59:28.983Z,77.62
2018-10-07T21:01:56.581Z,77.46
2018-10-07T21:04:24.138Z,77.92
2018-10-07T21:06:51.705Z,78.27
2018-10-07T21:09:19.258Z,78.40
2018-10-07T21:11:46.887Z,78.80
2018-10-07T21:14:14.433Z,78.66
2018-10-07T21:16:42.027Z,77.78
2018-10-07T21:19:09.569Z,78.42
2018-10-07T21:21:37.081Z,79.45
2018-10-07T21:24:04.890Z,79.40
2018-10-07T21:26:32.445Z,79.54
2018-10-07T21:29:00.002Z,79.60
2018-10-07T21:31:27.590Z,80.18
2018-10-07T21:33:55.202Z,80.33
2018-10-07T21:36:22.755Z,80.44
2018-10-07T21:38:50.331Z,80.48
2018-10-07T21:41:18.210Z,80.69
2018-10-07T21:43:45.734Z,80.06
2018-10-07T21:46:13.284Z,80.72
2018-10-07T21:48:40.852Z,80.66
2018-10-07T21:51:08.382Z,81.23
2018-10-07T21:53:36.987Z,81.02
2018-10-07T21:56:04.537Z,81.06
2018-10-07T21:58:32.070Z,80.90
2018-10-07T22:01:00.781Z,80.81
2018-10-07T22:03:28.350Z,80.81
2018-10-07T22:05:55.917Z,80.63
2018-10-07T22:08:23.474Z,80.62
2018-10-07T22:10:51.006Z,80.62
2018-10-07T22:13:18.530Z,80.21
2018-10-07T22:15:46.103Z,81.20
2018-10-07T22:18:13.663Z,81.51
2018-10-07T22:20:41.272Z,81.62
2018-10-07T22:23:08.834Z,80.90
2018-10-07T22:25:36.375Z,81.21
2018-10-07T22:28:03.907Z,80.35
2018-10-07T22:30:31.470Z,80.24
2018-10-07T22:32:59.025Z,80.59
2018-10-07T22:35:26.615Z,80.81
2018-10-07T22:37:54.156Z,81.35
2018-10-07T22:40:22.747Z,81.67
2018-10-07T22:42:50.267Z,81.42
2018-10-07T22:45:17.778Z,81.40
2018-10-07T22:47:45.683Z,81.73
2018-10-07T22:50:13.222Z,82.16
2018-10-07T22:52:40.753Z,82.11
2018-10-07T22:55:08.298Z,82.00
2018-10-07T22:57:35.843Z,82.70
2018-10-07T23:00:04.575Z,83.21
2018-10-07T23:02:32.106Z,83.01
2018-10-07T23:04:59.655Z,83.84
2018-10-07T23:07:27.206Z,83.72
2018-10-07T23:09:54.757Z,83.38
2018-10-07T23:12:22.330Z,83.50
2018-10-07T23:14:49.852Z,83.31
2018-10-07T23:17:17.447Z,83.93
2018-10-07T23:19:45.098Z,84.20
2018-10-07T23:22:12.605Z,84.30
2018-10-07T23:24:40.162Z,84.49
2018-10-07T23:27:07.678Z,85.03
2018-10-07T23:29:35.206Z,85.20
2018-10-07T23:32:02.732Z,84.69
2018-10-07T23:34:30.243Z,84.50
2018-10-07T23:36:57.803Z,84.94
2018-10-07T23:39:25.332Z,84.81
2018-10-07T23:41:52.902Z,84.80
2018-10-07T23:44:20.514Z,84.33
2018-10-07T23:46:48.055Z,84.47
2018-10-07T23:49:15.621Z,84.34
2018-10-07T23:51:43.258Z,84.68
2018-10-07T23:54:10.724Z,84.95
2018-10-07T23:56:38.295Z,85.18
2018-10-07T23:59:05.842Z,85.18
